sensor_id;sensor_type;location;lat;lon;timestamp;P1;durP1;ratioP1;P2;durP2;ratioP2
62153;SDS011;48140;45.486;9.226;2023-02-11T00:01:49;30.85;;;13.85;;
62153;SDS011;48140;45.486;9.226;2023-02-11T00:04:15;27.83;;;13.32;;
62153;SDS011;48140;45.486;9.226;2023-02-11T00:06:41;29.75;;;14.48;;
62153;SDS011;48140;45.486;9.226;2023-02-11T00:09:07;38.33;;;14.88;;
62153;SDS011;48140;45.486;9.226;2023-02-11T00:11:34;24.08;;;13.15;;
62153;SDS011;48140;45.486;9.226;2023-02-11T00:14:01;29.50;;;14.40;;
62153;SDS011;48140;45.486;9.226;2023-02-11T00:16:28;30.20;;;14.90;;
62153;SDS011;48140;45.486;9.226;2023-02-11T00:18:57;28.42;;;13.07;;
62153;SDS011;48140;45.486;9.226;2023-02-11T00:21:25;28.95;;;14.98;;
62153;SDS011;48140;45.486;9.226;2023-02-11T00:23:51;31.75;;;14.13;;
62153;SDS011;48140;45.486;9.226;2023-02-11T00:26:23;30.92;;;13.43;;
62153;SDS011;48140;45.486;9.226;2023-02-11T00:28:51;33.45;;;15.10;;
62153;SDS011;48140;45.486;9.226;2023-02-11T00:31:18;37.38;;;14.50;;
62153;SDS011;48140;45.486;9.226;2023-02-11T00:33:44;32.47;;;16.52;;
62153;SDS011;48140;45.486;9.226;2023-02-11T00:36:12;31.25;;;14.85;;
62153;SDS011;48140;45.486;9.226;2023-02-11T00:38:43;37.78;;;15.65;;
62153;SDS011;48140;45.486;9.226;2023-02-11T00:41:10;27.13;;;15.32;;
62153;SDS011;48140;45.486;9.226;2023-02-11T00:43:37;30.02;;;14.55;;
62153;SDS011;48140;45.486;9.226;2023-02-11T00:46:02;36.42;;;15.63;;
62153;SDS011;48140;45.486;9.226;2023-02-11T00:48:28;32.00;;;15.00;;
62153;SDS011;48140;45.486;9.226;2023-02-11T00:50:54;35.67;;;16.25;;
62153;SDS011;48140;45.486;9.226;2023-02-11T00:53:20;31.77;;;15.07;;
62153;SDS011;48140;45.486;9.226;2023-02-11T00:55:45;37.95;;;16.90;;
62153;SDS011;48140;45.486;9.226;2023-02-11T00:58:11;32.33;;;16.00;;
62153;SDS011;48140;45.486;9.226;2023-02-11T01:00:37;29.80;;;16.30;;
62153;SDS011;48140;45.486;9.226;2023-02-11T01:03:02;33.63;;;15.63;;
62153;SDS011;48140;45.486;9.226;2023-02-11T01:05:28;35.30;;;16.83;;
62153;SDS011;48140;45.486;9.226;2023-02-11T01:07:54;36.83;;;17.52;;
62153;SDS011;48140;45.486;9.226;2023-02-11T01:10:19;39.45;;;17.10;;
62153;SDS011;48140;45.486;9.226;2023-02-11T01:12:45;26.98;;;15.93;;
62153;SDS011;48140;45.486;9.226;2023-02-11T01:15:11;33.28;;;16.13;;
62153;SDS011;48140;45.486;9.226;2023-02-11T01:17:39;37.08;;;17.15;;
62153;SDS011;48140;45.486;9.226;2023-02-11T01:20:05;30.35;;;14.90;;
62153;SDS011;48140;45.486;9.226;2023-02-11T01:22:32;31.17;;;15.63;;
62153;SDS011;48140;45.486;9.226;2023-02-11T01:25:01;31.02;;;15.77;;
62153;SDS011;48140;45.486;9.226;2023-02-11T01:27:27;32.45;;;16.73;;
62153;SDS011;48140;45.486;9.226;2023-02-11T01:29:53;27.33;;;15.85;;
62153;SDS011;48140;45.486;9.226;2023-02-11T01:32:18;32.10;;;15.40;;
62153;SDS011;48140;45.486;9.226;2023-02-11T01:34:44;31.40;;;16.08;;
62153;SDS011;48140;45.486;9.226;2023-02-11T01:37:09;33.30;;;14.88;;
62153;SDS011;48140;45.486;9.226;2023-02-11T01:39:35;37.00;;;17.33;;
62153;SDS011;48140;45.486;9.226;2023-02-11T01:42:01;30.10;;;16.67;;
62153;SDS011;48140;45.486;9.226;2023-02-11T01:44:31;29.88;;;16.80;;
62153;SDS011;48140;45.486;9.226;2023-02-11T01:46:57;33.72;;;15.65;;
62153;SDS011;48140;45.486;9.226;2023-02-11T01:49:27;35.80;;;16.20;;
62153;SDS011;48140;45.486;9.226;2023-02-11T01:52:04;31.42;;;15.48;;
62153;SDS011;48140;45.486;9.226;2023-02-11T01:54:35;27.33;;;13.57;;
62153;SDS011;48140;45.486;9.226;2023-02-11T01:57:25;29.65;;;15.05;;
62153;SDS011;48140;45.486;9.226;2023-02-11T02:02:31;41.38;;;16.15;;
62153;SDS011;48140;45.486;9.226;2023-02-11T02:08:02;26.67;;;14.07;;
62153;SDS011;48140;45.486;9.226;2023-02-11T02:10:35;26.60;;;13.75;;
62153;SDS011;48140;45.486;9.226;2023-02-11T02:13:04;29.25;;;15.52;;
62153;SDS011;48140;45.486;9.226;2023-02-11T02:15:33;29.65;;;14.88;;
62153;SDS011;48140;45.486;9.226;2023-02-11T02:18:06;30.35;;;14.45;;
62153;SDS011;48140;45.486;9.226;2023-02-11T02:23:55;30.08;;;14.57;;
62153;SDS011;48140;45.486;9.226;2023-02-11T02:40:30;22.00;;;11.88;;
62153;SDS011;48140;45.486;9.226;2023-02-11T02:43:17;22.50;;;10.95;;
62153;SDS011;48140;45.486;9.226;2023-02-11T02:45:44;22.00;;;11.30;;
62153;SDS011;48140;45.486;9.226;2023-02-11T02:48:27;21.38;;;12.52;;
62153;SDS011;48140;45.486;9.226;2023-02-11T02:51:01;22.30;;;11.65;;
62153;SDS011;48140;45.486;9.226;2023-02-11T02:57:10;19.25;;;11.82;;
62153;SDS011;48140;45.486;9.226;2023-02-11T03:08:33;24.35;;;11.27;;
62153;SDS011;48140;45.486;9.226;2023-02-11T03:11:09;23.60;;;11.70;;
62153;SDS011;48140;45.486;9.226;2023-02-11T03:13:36;22.95;;;12.27;;
62153;SDS011;48140;45.486;9.226;2023-02-11T03:16:08;21.65;;;12.02;;
62153;SDS011;48140;45.486;9.226;2023-02-11T03:18:39;24.40;;;11.85;;
62153;SDS011;48140;45.486;9.226;2023-02-11T03:21:07;24.40;;;12.88;;
62153;SDS011;48140;45.486;9.226;2023-02-11T03:23:39;21.85;;;12.60;;
62153;SDS011;48140;45.486;9.226;2023-02-11T03:26:15;27.10;;;12.88;;
62153;SDS011;48140;45.486;9.226;2023-02-11T03:28:52;22.27;;;12.85;;
62153;SDS011;48140;45.486;9.226;2023-02-11T03:31:33;23.27;;;12.20;;
62153;SDS011;48140;45.486;9.226;2023-02-11T03:34:26;22.92;;;13.00;;
62153;SDS011;48140;45.486;9.226;2023-02-11T03:37:32;25.80;;;12.48;;
62153;SDS011;48140;45.486;9.226;2023-02-11T03:42:48;27.05;;;12.57;;
62153;SDS011;48140;45.486;9.226;2023-02-11T03:45:18;28.90;;;13.10;;
62153;SDS011;48140;45.486;9.226;2023-02-11T03:47:59;30.67;;;12.13;;
62153;SDS011;48140;45.486;9.226;2023-02-11T03:50:28;25.08;;;12.13;;
62153;SDS011;48140;45.486;9.226;2023-02-11T03:52:58;22.65;;;13.15;;
62153;SDS011;48140;45.486;9.226;2023-02-11T03:55:25;29.17;;;13.70;;
62153;SDS011;48140;45.486;9.226;2023-02-11T03:57:53;27.75;;;14.13;;
62153;SDS011;48140;45.486;9.226;2023-02-11T04:00:20;23.88;;;13.15;;
62153;SDS011;48140;45.486;9.226;2023-02-11T04:02:45;22.35;;;12.70;;
62153;SDS011;48140;45.486;9.226;2023-02-11T04:05:12;20.70;;;13.15;;
62153;SDS011;48140;45.486;9.226;2023-02-11T04:07:41;26.42;;;13.52;;
62153;SDS011;48140;45.486;9.226;2023-02-11T04:10:06;28.25;;;12.98;;
62153;SDS011;48140;45.486;9.226;2023-02-11T04:12:32;26.73;;;13.73;;
62153;SDS011;48140;45.486;9.226;2023-02-11T04:14:58;31.08;;;12.80;;
62153;SDS011;48140;45.486;9.226;2023-02-11T04:17:24;24.67;;;11.88;;
62153;SDS011;48140;45.486;9.226;2023-02-11T04:19:49;24.13;;;13.38;;
62153;SDS011;48140;45.486;9.226;2023-02-11T04:22:15;28.38;;;13.05;;
62153;SDS011;48140;45.486;9.226;2023-02-11T04:24:41;25.02;;;12.68;;
62153;SDS011;48140;45.486;9.226;2023-02-11T04:34:54;20.95;;;12.32;;
62153;SDS011;48140;45.486;9.226;2023-02-11T04:37:19;30.65;;;12.82;;
62153;SDS011;48140;45.486;9.226;2023-02-11T04:39:45;27.02;;;14.13;;
62153;SDS011;48140;45.486;9.226;2023-02-11T04:42:10;28.40;;;13.27;;
62153;SDS011;48140;45.486;9.226;2023-02-11T04:44:36;27.48;;;13.73;;
62153;SDS011;48140;45.486;9.226;2023-02-11T04:47:02;23.08;;;12.23;;
62153;SDS011;48140;45.486;9.226;2023-02-11T04:49:28;24.40;;;12.13;;
62153;SDS011;48140;45.486;9.226;2023-02-11T04:51:54;23.77;;;12.68;;
62153;SDS011;48140;45.486;9.226;2023-02-11T04:54:19;27.48;;;13.15;;
62153;SDS011;48140;45.486;9.226;2023-02-11T04:56:46;23.13;;;12.98;;
62153;SDS011;48140;45.486;9.226;2023-02-11T04:59:12;27.58;;;14.70;;
62153;SDS011;48140;45.486;9.226;2023-02-11T05:01:38;23.58;;;12.70;;
62153;SDS011;48140;45.486;9.226;2023-02-11T05:04:04;29.95;;;15.00;;
62153;SDS011;48140;45.486;9.226;2023-02-11T05:06:29;25.50;;;14.07;;
62153;SDS011;48140;45.486;9.226;2023-02-11T05:08:55;27.20;;;13.10;;
62153;SDS011;48140;45.486;9.226;2023-02-11T05:11:23;23.38;;;13.50;;
62153;SDS011;48140;45.486;9.226;2023-02-11T05:13:49;26.77;;;14.45;;
62153;SDS011;48140;45.486;9.226;2023-02-11T05:16:18;34.05;;;14.93;;
62153;SDS011;48140;45.486;9.226;2023-02-11T05:19:02;32.22;;;13.60;;
62153;SDS011;48140;45.486;9.226;2023-02-11T05:21:27;20.38;;;11.27;;
62153;SDS011;48140;45.486;9.226;2023-02-11T05:23:53;26.48;;;13.07;;
62153;SDS011;48140;45.486;9.226;2023-02-11T05:26:18;29.50;;;13.80;;
62153;SDS011;48140;45.486;9.226;2023-02-11T05:28:44;30.25;;;12.43;;
62153;SDS011;48140;45.486;9.226;2023-02-11T05:31:10;20.05;;;11.73;;
62153;SDS011;48140;45.486;9.226;2023-02-11T05:33:38;22.55;;;12.63;;
62153;SDS011;48140;45.486;9.226;2023-02-11T05:36:05;20.08;;;11.80;;
62153;SDS011;48140;45.486;9.226;2023-02-11T05:38:32;26.23;;;11.38;;
62153;SDS011;48140;45.486;9.226;2023-02-11T05:40:59;24.10;;;11.25;;
62153;SDS011;48140;45.486;9.226;2023-02-11T05:43:24;26.02;;;12.57;;
62153;SDS011;48140;45.486;9.226;2023-02-11T05:45:50;23.83;;;12.85;;
62153;SDS011;48140;45.486;9.226;2023-02-11T05:48:16;21.42;;;10.75;;
62153;SDS011;48140;45.486;9.226;2023-02-11T05:50:42;24.38;;;11.00;;
62153;SDS011;48140;45.486;9.226;2023-02-11T05:53:08;24.10;;;10.73;;
62153;SDS011;48140;45.486;9.226;2023-02-11T05:55:33;22.88;;;11.68;;
62153;SDS011;48140;45.486;9.226;2023-02-11T05:57:59;21.48;;;11.05;;
62153;SDS011;48140;45.486;9.226;2023-02-11T06:00:25;21.27;;;12.00;;
62153;SDS011;48140;45.486;9.226;2023-02-11T06:02:51;19.92;;;11.15;;
62153;SDS011;48140;45.486;9.226;2023-02-11T06:05:16;20.42;;;11.32;;
62153;SDS011;48140;45.486;9.226;2023-02-11T06:07:42;25.20;;;13.00;;
62153;SDS011;48140;45.486;9.226;2023-02-11T06:10:08;22.92;;;12.13;;
62153;SDS011;48140;45.486;9.226;2023-02-11T06:12:35;22.17;;;11.68;;
62153;SDS011;48140;45.486;9.226;2023-02-11T06:15:02;21.65;;;12.98;;
62153;SDS011;48140;45.486;9.226;2023-02-11T06:17:28;23.60;;;12.20;;
62153;SDS011;48140;45.486;9.226;2023-02-11T06:19:57;23.83;;;12.63;;
62153;SDS011;48140;45.486;9.226;2023-02-11T06:22:24;31.83;;;12.43;;
62153;SDS011;48140;45.486;9.226;2023-02-11T06:24:50;23.45;;;12.88;;
62153;SDS011;48140;45.486;9.226;2023-02-11T06:27:16;22.88;;;12.35;;
62153;SDS011;48140;45.486;9.226;2023-02-11T06:29:43;23.60;;;12.65;;
62153;SDS011;48140;45.486;9.226;2023-02-11T06:32:09;21.30;;;11.93;;
62153;SDS011;48140;45.486;9.226;2023-02-11T06:34:34;22.80;;;11.55;;
62153;SDS011;48140;45.486;9.226;2023-02-11T06:37:01;24.23;;;11.93;;
62153;SDS011;48140;45.486;9.226;2023-02-11T06:39:26;20.50;;;11.15;;
62153;SDS011;48140;45.486;9.226;2023-02-11T06:41:52;23.52;;;11.23;;
62153;SDS011;48140;45.486;9.226;2023-02-11T06:44:17;20.10;;;10.23;;
62153;SDS011;48140;45.486;9.226;2023-02-11T06:46:43;22.08;;;10.70;;
62153;SDS011;48140;45.486;9.226;2023-02-11T06:49:09;21.77;;;9.45;;
62153;SDS011;48140;45.486;9.226;2023-02-11T06:51:34;18.25;;;9.50;;
62153;SDS011;48140;45.486;9.226;2023-02-11T06:54:00;14.98;;;9.23;;
62153;SDS011;48140;45.486;9.226;2023-02-11T06:56:26;13.48;;;8.93;;
62153;SDS011;48140;45.486;9.226;2023-02-11T06:58:53;17.73;;;9.75;;
62153;SDS011;48140;45.486;9.226;2023-02-11T07:01:19;15.93;;;9.07;;
62153;SDS011;48140;45.486;9.226;2023-02-11T07:03:46;20.35;;;10.05;;
62153;SDS011;48140;45.486;9.226;2023-02-11T07:06:13;17.65;;;10.32;;
62153;SDS011;48140;45.486;9.226;2023-02-11T07:08:40;22.20;;;10.02;;
62153;SDS011;48140;45.486;9.226;2023-02-11T07:11:08;17.85;;;10.18;;
62153;SDS011;48140;45.486;9.226;2023-02-11T07:13:35;20.42;;;10.20;;
62153;SDS011;48140;45.486;9.226;2023-02-11T07:16:08;15.45;;;8.93;;
62153;SDS011;48140;45.486;9.226;2023-02-11T07:18:35;17.40;;;9.43;;
62153;SDS011;48140;45.486;9.226;2023-02-11T07:21:05;23.58;;;9.40;;
62153;SDS011;48140;45.486;9.226;2023-02-11T07:23:32;23.17;;;10.15;;
62153;SDS011;48140;45.486;9.226;2023-02-11T07:28:34;15.55;;;9.30;;
62153;SDS011;48140;45.486;9.226;2023-02-11T07:33:37;20.50;;;9.95;;
62153;SDS011;48140;45.486;9.226;2023-02-11T07:36:04;17.77;;;10.15;;
62153;SDS011;48140;45.486;9.226;2023-02-11T07:38:31;12.45;;;8.70;;
62153;SDS011;48140;45.486;9.226;2023-02-11T08:17:13;20.80;;;10.07;;
62153;SDS011;48140;45.486;9.226;2023-02-11T08:19:38;25.48;;;11.32;;
62153;SDS011;48140;45.486;9.226;2023-02-11T08:22:04;20.77;;;10.75;;
62153;SDS011;48140;45.486;9.226;2023-02-11T08:24:30;22.80;;;10.32;;
62153;SDS011;48140;45.486;9.226;2023-02-11T08:26:56;20.58;;;10.40;;
62153;SDS011;48140;45.486;9.226;2023-02-11T08:29:22;27.45;;;11.45;;
62153;SDS011;48140;45.486;9.226;2023-02-11T08:31:47;17.95;;;10.50;;
62153;SDS011;48140;45.486;9.226;2023-02-11T08:34:13;21.00;;;10.93;;
62153;SDS011;48140;45.486;9.226;2023-02-11T08:36:42;19.50;;;11.13;;
62153;SDS011;48140;45.486;9.226;2023-02-11T08:39:14;18.40;;;9.95;;
62153;SDS011;48140;45.486;9.226;2023-02-11T08:41:41;20.80;;;10.48;;
62153;SDS011;48140;45.486;9.226;2023-02-11T08:44:07;22.63;;;10.63;;
62153;SDS011;48140;45.486;9.226;2023-02-11T08:46:33;19.23;;;10.52;;
62153;SDS011;48140;45.486;9.226;2023-02-11T08:48:59;22.02;;;10.80;;
62153;SDS011;48140;45.486;9.226;2023-02-11T08:51:26;19.13;;;10.05;;
62153;SDS011;48140;45.486;9.226;2023-02-11T08:53:54;17.95;;;10.30;;
62153;SDS011;48140;45.486;9.226;2023-02-11T08:56:21;19.67;;;10.23;;
62153;SDS011;48140;45.486;9.226;2023-02-11T08:58:47;25.75;;;11.05;;
62153;SDS011;48140;45.486;9.226;2023-02-11T09:01:14;19.48;;;10.77;;
62153;SDS011;48140;45.486;9.226;2023-02-11T09:03:43;23.38;;;10.30;;
62153;SDS011;48140;45.486;9.226;2023-02-11T09:06:09;26.58;;;11.85;;
62153;SDS011;48140;45.486;9.226;2023-02-11T09:08:36;22.98;;;10.75;;
62153;SDS011;48140;45.486;9.226;2023-02-11T09:11:03;22.80;;;10.88;;
62153;SDS011;48140;45.486;9.226;2023-02-11T09:13:30;22.70;;;11.13;;
62153;SDS011;48140;45.486;9.226;2023-02-11T09:15:57;24.17;;;11.68;;
62153;SDS011;48140;45.486;9.226;2023-02-11T09:18:23;21.15;;;10.55;;
62153;SDS011;48140;45.486;9.226;2023-02-11T09:20:49;18.10;;;11.38;;
62153;SDS011;48140;45.486;9.226;2023-02-11T09:23:16;22.58;;;10.95;;
62153;SDS011;48140;45.486;9.226;2023-02-11T09:25:42;21.23;;;11.18;;
62153;SDS011;48140;45.486;9.226;2023-02-11T09:28:08;20.45;;;11.57;;
62153;SDS011;48140;45.486;9.226;2023-02-11T09:30:37;23.48;;;11.77;;
62153;SDS011;48140;45.486;9.226;2023-02-11T09:33:02;20.90;;;11.20;;
62153;SDS011;48140;45.486;9.226;2023-02-11T09:35:28;22.42;;;11.82;;
62153;SDS011;48140;45.486;9.226;2023-02-11T09:37:54;22.95;;;11.88;;
62153;SDS011;48140;45.486;9.226;2023-02-11T09:40:20;26.30;;;11.55;;
62153;SDS011;48140;45.486;9.226;2023-02-11T09:45:18;20.65;;;11.30;;
62153;SDS011;48140;45.486;9.226;2023-02-11T09:47:48;27.27;;;12.30;;
62153;SDS011;48140;45.486;9.226;2023-02-11T09:50:17;20.58;;;11.45;;
62153;SDS011;48140;45.486;9.226;2023-02-11T09:53:18;23.25;;;11.85;;
62153;SDS011;48140;45.486;9.226;2023-02-11T09:55:45;21.35;;;10.93;;
62153;SDS011;48140;45.486;9.226;2023-02-11T09:58:35;25.55;;;11.27;;
62153;SDS011;48140;45.486;9.226;2023-02-11T10:06:39;23.13;;;11.98;;
62153;SDS011;48140;45.486;9.226;2023-02-11T10:15:17;23.08;;;11.45;;
62153;SDS011;48140;45.486;9.226;2023-02-11T10:17:58;22.95;;;11.35;;
62153;SDS011;48140;45.486;9.226;2023-02-11T10:23:28;21.17;;;11.30;;
62153;SDS011;48140;45.486;9.226;2023-02-11T10:25:58;23.70;;;12.40;;
62153;SDS011;48140;45.486;9.226;2023-02-11T10:30:56;21.63;;;11.23;;
62153;SDS011;48140;45.486;9.226;2023-02-11T10:33:33;22.92;;;12.15;;
62153;SDS011;48140;45.486;9.226;2023-02-11T10:36:01;25.85;;;12.18;;
62153;SDS011;48140;45.486;9.226;2023-02-11T10:38:28;21.90;;;11.60;;
62153;SDS011;48140;45.486;9.226;2023-02-11T10:40:54;22.58;;;11.48;;
62153;SDS011;48140;45.486;9.226;2023-02-11T10:43:22;20.15;;;10.80;;
62153;SDS011;48140;45.486;9.226;2023-02-11T10:45:51;20.92;;;10.35;;
62153;SDS011;48140;45.486;9.226;2023-02-11T10:51:11;18.17;;;9.18;;
62153;SDS011;48140;45.486;9.226;2023-02-11T11:03:59;16.55;;;9.48;;
62153;SDS011;48140;45.486;9.226;2023-02-11T11:14:17;17.65;;;9.18;;
62153;SDS011;48140;45.486;9.226;2023-02-11T11:16:50;16.15;;;9.25;;
62153;SDS011;48140;45.486;9.226;2023-02-11T11:50:39;13.50;;;9.00;;
62153;SDS011;48140;45.486;9.226;2023-02-11T11:53:22;18.95;;;8.77;;
62153;SDS011;48140;45.486;9.226;2023-02-11T11:56:19;16.40;;;9.52;;
62153;SDS011;48140;45.486;9.226;2023-02-11T11:58:47;15.20;;;9.07;;
62153;SDS011;48140;45.486;9.226;2023-02-11T12:01:25;19.35;;;9.48;;
62153;SDS011;48140;45.486;9.226;2023-02-11T12:31:58;18.77;;;9.98;;
62153;SDS011;48140;45.486;9.226;2023-02-11T12:37:36;19.02;;;10.07;;
62153;SDS011;48140;45.486;9.226;2023-02-11T12:42:49;18.15;;;10.20;;
62153;SDS011;48140;45.486;9.226;2023-02-11T12:45:48;17.17;;;9.23;;
62153;SDS011;48140;45.486;9.226;2023-02-11T12:56:40;16.80;;;9.50;;
62153;SDS011;48140;45.486;9.226;2023-02-11T12:59:13;21.23;;;10.60;;
62153;SDS011;48140;45.486;9.226;2023-02-11T13:01:58;17.55;;;10.82;;
62153;SDS011;48140;45.486;9.226;2023-02-11T13:04:29;17.65;;;10.52;;
62153;SDS011;48140;45.486;9.226;2023-02-11T13:07:01;17.65;;;9.80;;
62153;SDS011;48140;45.486;9.226;2023-02-11T13:09:35;16.08;;;9.88;;
62153;SDS011;48140;45.486;9.226;2023-02-11T13:12:05;18.42;;;10.20;;
62153;SDS011;48140;45.486;9.226;2023-02-11T13:14:52;20.40;;;10.88;;
62153;SDS011;48140;45.486;9.226;2023-02-11T13:17:28;20.38;;;11.65;;
62153;SDS011;48140;45.486;9.226;2023-02-11T13:20:05;19.25;;;11.18;;
62153;SDS011;48140;45.486;9.226;2023-02-11T13:23:00;18.45;;;11.05;;
62153;SDS011;48140;45.486;9.226;2023-02-11T15:27:56;20.95;;;11.90;;
62153;SDS011;48140;45.486;9.226;2023-02-11T15:38:10;16.30;;;10.43;;
62153;SDS011;48140;45.486;9.226;2023-02-11T15:40:37;14.80;;;9.38;;
62153;SDS011;48140;45.486;9.226;2023-02-11T15:43:06;18.00;;;10.23;;
62153;SDS011;48140;45.486;9.226;2023-02-11T15:45:41;17.15;;;9.88;;
62153;SDS011;48140;45.486;9.226;2023-02-11T15:48:18;18.08;;;9.70;;
62153;SDS011;48140;45.486;9.226;2023-02-11T15:50:54;17.23;;;10.15;;
62153;SDS011;48140;45.486;9.226;2023-02-11T15:53:40;17.90;;;10.45;;
62153;SDS011;48140;45.486;9.226;2023-02-11T15:56:12;17.98;;;11.02;;
62153;SDS011;48140;45.486;9.226;2023-02-11T15:58:40;16.05;;;10.40;;
62153;SDS011;48140;45.486;9.226;2023-02-11T16:01:09;18.30;;;10.23;;
62153;SDS011;48140;45.486;9.226;2023-02-11T16:03:35;19.25;;;9.80;;
62153;SDS011;48140;45.486;9.226;2023-02-11T16:14:22;19.02;;;10.25;;
62153;SDS011;48140;45.486;9.226;2023-02-11T16:17:11;17.15;;;10.60;;
62153;SDS011;48140;45.486;9.226;2023-02-11T16:19:53;18.50;;;10.27;;
62153;SDS011;48140;45.486;9.226;2023-02-11T16:22:28;18.98;;;11.10;;
62153;SDS011;48140;45.486;9.226;2023-02-11T16:24:59;17.92;;;10.68;;
62153;SDS011;48140;45.486;9.226;2023-02-11T16:27:26;17.48;;;9.68;;
62153;SDS011;48140;45.486;9.226;2023-02-11T16:29:56;16.02;;;9.88;;
62153;SDS011;48140;45.486;9.226;2023-02-11T16:32:26;19.52;;;10.52;;
62153;SDS011;48140;45.486;9.226;2023-02-11T16:34:54;20.67;;;10.40;;
62153;SDS011;48140;45.486;9.226;2023-02-11T16:37:21;22.80;;;10.45;;
62153;SDS011;48140;45.486;9.226;2023-02-11T16:39:48;22.83;;;10.88;;
62153;SDS011;48140;45.486;9.226;2023-02-11T16:42:13;22.85;;;11.32;;
62153;SDS011;48140;45.486;9.226;2023-02-11T16:44:39;18.38;;;9.93;;
62153;SDS011;48140;45.486;9.226;2023-02-11T16:47:06;19.00;;;10.55;;
62153;SDS011;48140;45.486;9.226;2023-02-11T16:49:40;21.42;;;10.13;;
62153;SDS011;48140;45.486;9.226;2023-02-11T16:52:07;17.13;;;9.85;;
62153;SDS011;48140;45.486;9.226;2023-02-11T16:54:37;19.30;;;10.65;;
62153;SDS011;48140;45.486;9.226;2023-02-11T16:57:11;22.77;;;11.32;;
62153;SDS011;48140;45.486;9.226;2023-02-11T16:59:39;25.98;;;11.30;;
62153;SDS011;48140;45.486;9.226;2023-02-11T17:02:07;27.15;;;11.30;;
62153;SDS011;48140;45.486;9.226;2023-02-11T17:04:39;21.05;;;11.15;;
62153;SDS011;48140;45.486;9.226;2023-02-11T17:07:05;22.02;;;10.30;;
62153;SDS011;48140;45.486;9.226;2023-02-11T17:09:31;22.83;;;10.32;;
62153;SDS011;48140;45.486;9.226;2023-02-11T17:11:57;22.42;;;10.88;;
62153;SDS011;48140;45.486;9.226;2023-02-11T17:14:23;23.73;;;11.25;;
62153;SDS011;48140;45.486;9.226;2023-02-11T17:16:48;22.35;;;10.93;;
62153;SDS011;48140;45.486;9.226;2023-02-11T17:19:15;22.92;;;11.30;;
62153;SDS011;48140;45.486;9.226;2023-02-11T17:21:46;18.70;;;10.77;;
62153;SDS011;48140;45.486;9.226;2023-02-11T17:24:13;19.55;;;10.40;;
62153;SDS011;48140;45.486;9.226;2023-02-11T17:26:40;21.35;;;10.80;;
62153;SDS011;48140;45.486;9.226;2023-02-11T17:29:07;18.42;;;10.93;;
62153;SDS011;48140;45.486;9.226;2023-02-11T17:31:34;21.67;;;10.90;;
62153;SDS011;48140;45.486;9.226;2023-02-11T17:34:01;21.50;;;10.98;;
62153;SDS011;48140;45.486;9.226;2023-02-11T17:36:27;19.88;;;10.23;;
62153;SDS011;48140;45.486;9.226;2023-02-11T17:38:55;24.52;;;11.98;;
62153;SDS011;48140;45.486;9.226;2023-02-11T17:41:22;22.50;;;11.30;;
62153;SDS011;48140;45.486;9.226;2023-02-11T17:43:48;22.42;;;11.20;;
62153;SDS011;48140;45.486;9.226;2023-02-11T17:46:14;24.60;;;12.10;;
62153;SDS011;48140;45.486;9.226;2023-02-11T17:48:39;28.33;;;12.43;;
62153;SDS011;48140;45.486;9.226;2023-02-11T17:51:05;22.52;;;12.15;;
62153;SDS011;48140;45.486;9.226;2023-02-11T17:53:49;23.85;;;11.65;;
62153;SDS011;48140;45.486;9.226;2023-02-11T17:56:15;31.40;;;12.20;;
62153;SDS011;48140;45.486;9.226;2023-02-11T17:58:41;28.60;;;12.10;;
62153;SDS011;48140;45.486;9.226;2023-02-11T18:01:07;28.05;;;12.57;;
62153;SDS011;48140;45.486;9.226;2023-02-11T18:03:32;20.65;;;11.73;;
62153;SDS011;48140;45.486;9.226;2023-02-11T18:06:01;21.85;;;12.02;;
62153;SDS011;48140;45.486;9.226;2023-02-11T18:08:28;25.75;;;12.82;;
62153;SDS011;48140;45.486;9.226;2023-02-11T18:10:54;25.48;;;12.38;;
62153;SDS011;48140;45.486;9.226;2023-02-11T18:13:20;23.83;;;12.63;;
62153;SDS011;48140;45.486;9.226;2023-02-11T18:15:45;22.98;;;12.15;;
62153;SDS011;48140;45.486;9.226;2023-02-11T18:18:11;23.98;;;12.10;;
62153;SDS011;48140;45.486;9.226;2023-02-11T18:20:37;21.73;;;12.20;;
62153;SDS011;48140;45.486;9.226;2023-02-11T18:23:04;26.58;;;12.98;;
62153;SDS011;48140;45.486;9.226;2023-02-11T18:25:30;24.63;;;13.25;;
62153;SDS011;48140;45.486;9.226;2023-02-11T18:27:55;26.05;;;13.02;;
62153;SDS011;48140;45.486;9.226;2023-02-11T18:30:21;25.95;;;12.95;;
62153;SDS011;48140;45.486;9.226;2023-02-11T18:32:51;29.73;;;13.45;;
62153;SDS011;48140;45.486;9.226;2023-02-11T18:35:18;34.42;;;13.43;;
62153;SDS011;48140;45.486;9.226;2023-02-11T18:37:45;25.02;;;12.60;;
62153;SDS011;48140;45.486;9.226;2023-02-11T18:40:10;24.60;;;12.07;;
62153;SDS011;48140;45.486;9.226;2023-02-11T18:42:37;29.75;;;12.40;;
62153;SDS011;48140;45.486;9.226;2023-02-11T18:45:04;25.13;;;12.07;;
62153;SDS011;48140;45.486;9.226;2023-02-11T18:47:35;25.92;;;12.82;;
62153;SDS011;48140;45.486;9.226;2023-02-11T18:50:02;28.38;;;12.70;;
62153;SDS011;48140;45.486;9.226;2023-02-11T18:52:29;27.75;;;12.32;;
62153;SDS011;48140;45.486;9.226;2023-02-11T18:54:55;22.80;;;11.93;;
62153;SDS011;48140;45.486;9.226;2023-02-11T18:57:21;27.55;;;13.95;;
62153;SDS011;48140;45.486;9.226;2023-02-11T18:59:47;23.45;;;13.43;;
62153;SDS011;48140;45.486;9.226;2023-02-11T19:02:14;26.42;;;12.70;;
62153;SDS011;48140;45.486;9.226;2023-02-11T19:04:40;29.48;;;12.13;;
62153;SDS011;48140;45.486;9.226;2023-02-11T19:07:06;25.35;;;12.68;;
62153;SDS011;48140;45.486;9.226;2023-02-11T19:09:32;26.25;;;12.57;;
62153;SDS011;48140;45.486;9.226;2023-02-11T19:11:58;27.95;;;13.80;;
62153;SDS011;48140;45.486;9.226;2023-02-11T19:14:26;27.35;;;12.52;;
62153;SDS011;48140;45.486;9.226;2023-02-11T19:16:55;29.75;;;12.75;;
62153;SDS011;48140;45.486;9.226;2023-02-11T19:19:24;29.30;;;13.23;;
62153;SDS011;48140;45.486;9.226;2023-02-11T19:21:52;21.95;;;12.65;;
62153;SDS011;48140;45.486;9.226;2023-02-11T19:24:17;26.83;;;12.13;;
62153;SDS011;48140;45.486;9.226;2023-02-11T19:26:44;25.13;;;13.38;;
62153;SDS011;48140;45.486;9.226;2023-02-11T19:29:11;24.58;;;12.00;;
62153;SDS011;48140;45.486;9.226;2023-02-11T19:31:39;26.77;;;12.02;;
62153;SDS011;48140;45.486;9.226;2023-02-11T19:34:05;27.42;;;12.77;;
62153;SDS011;48140;45.486;9.226;2023-02-11T19:36:31;31.88;;;13.38;;
62153;SDS011;48140;45.486;9.226;2023-02-11T19:38:59;29.58;;;11.07;;
62153;SDS011;48140;45.486;9.226;2023-02-11T19:41:26;22.63;;;11.98;;
62153;SDS011;48140;45.486;9.226;2023-02-11T19:43:52;29.88;;;13.90;;
62153;SDS011;48140;45.486;9.226;2023-02-11T19:46:21;24.60;;;11.90;;
62153;SDS011;48140;45.486;9.226;2023-02-11T19:48:48;24.88;;;11.93;;
62153;SDS011;48140;45.486;9.226;2023-02-11T19:51:15;25.17;;;11.70;;
62153;SDS011;48140;45.486;9.226;2023-02-11T19:53:41;25.80;;;11.88;;
62153;SDS011;48140;45.486;9.226;2023-02-11T19:56:08;26.58;;;13.65;;
62153;SDS011;48140;45.486;9.226;2023-02-11T19:58:34;28.23;;;12.35;;
62153;SDS011;48140;45.486;9.226;2023-02-11T20:01:08;30.15;;;12.65;;
62153;SDS011;48140;45.486;9.226;2023-02-11T20:03:34;23.48;;;11.98;;
62153;SDS011;48140;45.486;9.226;2023-02-11T20:06:22;27.27;;;13.45;;
62153;SDS011;48140;45.486;9.226;2023-02-11T20:08:51;24.88;;;12.80;;
62153;SDS011;48140;45.486;9.226;2023-02-11T20:11:19;24.13;;;11.90;;
62153;SDS011;48140;45.486;9.226;2023-02-11T20:13:45;33.75;;;11.52;;